sensor_id;sensor_type;location;lat;lon;timestamp;P1;durP1;ratioP1;P2;durP2;ratioP2
19675;SDS011;39539;52.202;9.876;2024-03-06T00:02:23;16.30;;;11.65;;
19675;SDS011;39539;52.202;9.876;2024-03-06T00:04:48;13.27;;;11.82;;
19675;SDS011;39539;52.202;9.876;2024-03-06T00:07:13;16.90;;;13.95;;
19675;SDS011;39539;52.202;9.876;2024-03-06T00:09:39;18.15;;;13.15;;
19675;SDS011;39539;52.202;9.876;2024-03-06T00:12:04;13.55;;;11.82;;
19675;SDS011;39539;52.202;9.876;2024-03-06T00:14:31;15.13;;;12.45;;
19675;SDS011;39539;52.202;9.876;2024-03-06T00:16:56;13.85;;;12.43;;
19675;SDS011;39539;52.202;9.876;2024-03-06T00:19:22;16.02;;;12.38;;
19675;SDS011;39539;52.202;9.876;2024-03-06T00:21:48;14.45;;;12.95;;
19675;SDS011;39539;52.202;9.876;2024-03-06T00:24:13;16.27;;;12.98;;
19675;SDS011;39539;52.202;9.876;2024-03-06T00:26:43;13.48;;;12.05;;
19675;SDS011;39539;52.202;9.876;2024-03-06T00:29:09;17.13;;;12.88;;
19675;SDS011;39539;52.202;9.876;2024-03-06T00:31:35;18.40;;;14.38;;
19675;SDS011;39539;52.202;9.876;2024-03-06T00:34:00;15.07;;;13.57;;
19675;SDS011;39539;52.202;9.876;2024-03-06T00:36:26;16.60;;;13.98;;
19675;SDS011;39539;52.202;9.876;2024-03-06T00:38:51;18.65;;;14.52;;
19675;SDS011;39539;52.202;9.876;2024-03-06T00:41:17;15.18;;;13.40;;
19675;SDS011;39539;52.202;9.876;2024-03-06T00:43:42;18.38;;;15.18;;
19675;SDS011;39539;52.202;9.876;2024-03-06T00:46:08;15.20;;;11.70;;
19675;SDS011;39539;52.202;9.876;2024-03-06T00:48:33;19.65;;;15.23;;
19675;SDS011;39539;52.202;9.876;2024-03-06T00:50:58;18.92;;;15.63;;
19675;SDS011;39539;52.202;9.876;2024-03-06T00:53:24;15.85;;;14.25;;
19675;SDS011;39539;52.202;9.876;2024-03-06T00:55:49;17.98;;;14.07;;
19675;SDS011;39539;52.202;9.876;2024-03-06T00:58:14;16.38;;;13.70;;
19675;SDS011;39539;52.202;9.876;2024-03-06T01:00:40;16.10;;;13.70;;
19675;SDS011;39539;52.202;9.876;2024-03-06T01:03:05;18.35;;;13.80;;
19675;SDS011;39539;52.202;9.876;2024-03-06T01:05:30;18.10;;;15.13;;
19675;SDS011;39539;52.202;9.876;2024-03-06T01:07:56;18.52;;;15.18;;
19675;SDS011;39539;52.202;9.876;2024-03-06T01:10:22;19.80;;;15.07;;
19675;SDS011;39539;52.202;9.876;2024-03-06T01:12:47;18.52;;;14.85;;
19675;SDS011;39539;52.202;9.876;2024-03-06T01:15:13;17.48;;;15.48;;
19675;SDS011;39539;52.202;9.876;2024-03-06T01:17:39;21.00;;;15.27;;
19675;SDS011;39539;52.202;9.876;2024-03-06T01:20:04;18.58;;;15.68;;
19675;SDS011;39539;52.202;9.876;2024-03-06T01:22:32;20.65;;;15.98;;
19675;SDS011;39539;52.202;9.876;2024-03-06T01:24:58;21.30;;;15.82;;
19675;SDS011;39539;52.202;9.876;2024-03-06T01:27:24;16.92;;;13.27;;
19675;SDS011;39539;52.202;9.876;2024-03-06T01:29:50;19.88;;;16.40;;
19675;SDS011;39539;52.202;9.876;2024-03-06T01:32:15;18.80;;;14.48;;
19675;SDS011;39539;52.202;9.876;2024-03-06T01:34:41;18.63;;;14.80;;
19675;SDS011;39539;52.202;9.876;2024-03-06T01:37:06;16.50;;;14.60;;
19675;SDS011;39539;52.202;9.876;2024-03-06T01:39:32;19.95;;;15.63;;
19675;SDS011;39539;52.202;9.876;2024-03-06T01:41:58;16.65;;;14.95;;
19675;SDS011;39539;52.202;9.876;2024-03-06T01:44:23;20.83;;;16.20;;
19675;SDS011;39539;52.202;9.876;2024-03-06T01:46:49;25.42;;;14.93;;
19675;SDS011;39539;52.202;9.876;2024-03-06T01:49:14;17.08;;;15.15;;
19675;SDS011;39539;52.202;9.876;2024-03-06T01:51:41;21.38;;;15.73;;
19675;SDS011;39539;52.202;9.876;2024-03-06T01:54:10;20.15;;;14.50;;
19675;SDS011;39539;52.202;9.876;2024-03-06T01:56:36;23.08;;;15.40;;
19675;SDS011;39539;52.202;9.876;2024-03-06T01:59:06;20.17;;;15.82;;
19675;SDS011;39539;52.202;9.876;2024-03-06T02:01:32;17.73;;;14.50;;
19675;SDS011;39539;52.202;9.876;2024-03-06T02:03:58;18.35;;;14.98;;
19675;SDS011;39539;52.202;9.876;2024-03-06T02:06:25;20.52;;;14.68;;
19675;SDS011;39539;52.202;9.876;2024-03-06T02:08:51;19.63;;;14.43;;
19675;SDS011;39539;52.202;9.876;2024-03-06T02:11:16;20.10;;;13.77;;
19675;SDS011;39539;52.202;9.876;2024-03-06T02:13:42;17.17;;;13.95;;
19675;SDS011;39539;52.202;9.876;2024-03-06T02:16:08;20.50;;;16.05;;
19675;SDS011;39539;52.202;9.876;2024-03-06T02:18:34;20.05;;;16.05;;
19675;SDS011;39539;52.202;9.876;2024-03-06T02:20:59;17.90;;;16.00;;
19675;SDS011;39539;52.202;9.876;2024-03-06T02:23:25;16.50;;;14.80;;
19675;SDS011;39539;52.202;9.876;2024-03-06T02:25:50;21.58;;;16.77;;
19675;SDS011;39539;52.202;9.876;2024-03-06T02:28:16;20.00;;;15.50;;
19675;SDS011;39539;52.202;9.876;2024-03-06T02:30:42;20.42;;;15.88;;
19675;SDS011;39539;52.202;9.876;2024-03-06T02:33:08;19.13;;;16.30;;
19675;SDS011;39539;52.202;9.876;2024-03-06T02:35:34;25.33;;;16.10;;
19675;SDS011;39539;52.202;9.876;2024-03-06T02:38:03;22.80;;;16.13;;
19675;SDS011;39539;52.202;9.876;2024-03-06T02:40:33;18.50;;;15.57;;
19675;SDS011;39539;52.202;9.876;2024-03-06T02:42:59;19.92;;;15.48;;
19675;SDS011;39539;52.202;9.876;2024-03-06T02:45:24;16.45;;;14.65;;
19675;SDS011;39539;52.202;9.876;2024-03-06T02:47:50;18.45;;;15.20;;
19675;SDS011;39539;52.202;9.876;2024-03-06T02:50:15;18.10;;;14.75;;
19675;SDS011;39539;52.202;9.876;2024-03-06T02:52:41;18.50;;;14.07;;
19675;SDS011;39539;52.202;9.876;2024-03-06T02:55:06;19.10;;;15.45;;
19675;SDS011;39539;52.202;9.876;2024-03-06T02:57:33;20.25;;;15.45;;
19675;SDS011;39539;52.202;9.876;2024-03-06T02:59:58;18.92;;;15.52;;
19675;SDS011;39539;52.202;9.876;2024-03-06T03:02:24;19.55;;;16.35;;
19675;SDS011;39539;52.202;9.876;2024-03-06T03:04:50;21.52;;;16.27;;
19675;SDS011;39539;52.202;9.876;2024-03-06T03:07:17;17.70;;;14.10;;
19675;SDS011;39539;52.202;9.876;2024-03-06T03:09:44;25.52;;;16.30;;
19675;SDS011;39539;52.202;9.876;2024-03-06T03:12:10;18.80;;;15.20;;
19675;SDS011;39539;52.202;9.876;2024-03-06T03:14:36;17.00;;;15.23;;
19675;SDS011;39539;52.202;9.876;2024-03-06T03:17:02;20.55;;;15.95;;
19675;SDS011;39539;52.202;9.876;2024-03-06T03:19:30;18.95;;;17.00;;
19675;SDS011;39539;52.202;9.876;2024-03-06T03:21:56;18.02;;;15.25;;
19675;SDS011;39539;52.202;9.876;2024-03-06T03:24:21;19.50;;;16.33;;
19675;SDS011;39539;52.202;9.876;2024-03-06T03:26:46;22.35;;;15.98;;
19675;SDS011;39539;52.202;9.876;2024-03-06T03:29:12;20.17;;;16.23;;
19675;SDS011;39539;52.202;9.876;2024-03-06T03:31:37;17.90;;;16.00;;
19675;SDS011;39539;52.202;9.876;2024-03-06T03:34:03;16.40;;;14.25;;
19675;SDS011;39539;52.202;9.876;2024-03-06T03:36:30;18.67;;;14.95;;
19675;SDS011;39539;52.202;9.876;2024-03-06T03:38:55;19.63;;;16.45;;
19675;SDS011;39539;52.202;9.876;2024-03-06T03:41:20;16.60;;;14.75;;
19675;SDS011;39539;52.202;9.876;2024-03-06T03:43:46;16.88;;;15.00;;
19675;SDS011;39539;52.202;9.876;2024-03-06T03:46:11;18.10;;;13.57;;
19675;SDS011;39539;52.202;9.876;2024-03-06T03:48:36;17.35;;;15.55;;
19675;SDS011;39539;52.202;9.876;2024-03-06T03:51:02;23.38;;;15.88;;
19675;SDS011;39539;52.202;9.876;2024-03-06T03:53:32;24.55;;;15.85;;
19675;SDS011;39539;52.202;9.876;2024-03-06T03:55:58;19.48;;;15.60;;
19675;SDS011;39539;52.202;9.876;2024-03-06T03:58:24;19.05;;;14.43;;
19675;SDS011;39539;52.202;9.876;2024-03-06T04:00:49;20.10;;;14.98;;
19675;SDS011;39539;52.202;9.876;2024-03-06T04:03:18;16.88;;;14.65;;
19675;SDS011;39539;52.202;9.876;2024-03-06T04:05:47;19.88;;;14.63;;
19675;SDS011;39539;52.202;9.876;2024-03-06T04:08:13;19.08;;;14.50;;
19675;SDS011;39539;52.202;9.876;2024-03-06T04:10:38;18.88;;;15.50;;
19675;SDS011;39539;52.202;9.876;2024-03-06T04:13:04;18.58;;;15.07;;
19675;SDS011;39539;52.202;9.876;2024-03-06T04:15:29;17.70;;;13.88;;
19675;SDS011;39539;52.202;9.876;2024-03-06T04:17:54;16.38;;;14.68;;
19675;SDS011;39539;52.202;9.876;2024-03-06T04:20:20;19.50;;;16.15;;
19675;SDS011;39539;52.202;9.876;2024-03-06T04:22:45;17.73;;;15.43;;
19675;SDS011;39539;52.202;9.876;2024-03-06T04:25:12;17.40;;;14.77;;
19675;SDS011;39539;52.202;9.876;2024-03-06T04:27:38;18.17;;;14.68;;
19675;SDS011;39539;52.202;9.876;2024-03-06T04:30:03;16.95;;;15.10;;
19675;SDS011;39539;52.202;9.876;2024-03-06T04:32:29;18.08;;;15.80;;
19675;SDS011;39539;52.202;9.876;2024-03-06T04:34:55;17.02;;;15.20;;
19675;SDS011;39539;52.202;9.876;2024-03-06T04:37:21;19.48;;;15.82;;
19675;SDS011;39539;52.202;9.876;2024-03-06T04:39:46;17.02;;;14.27;;
19675;SDS011;39539;52.202;9.876;2024-03-06T04:42:12;18.88;;;15.63;;
19675;SDS011;39539;52.202;9.876;2024-03-06T04:44:37;19.40;;;16.10;;
19675;SDS011;39539;52.202;9.876;2024-03-06T04:47:03;21.05;;;14.48;;
19675;SDS011;39539;52.202;9.876;2024-03-06T04:49:32;16.63;;;14.82;;
19675;SDS011;39539;52.202;9.876;2024-03-06T04:51:58;21.08;;;15.10;;
19675;SDS011;39539;52.202;9.876;2024-03-06T04:54:23;20.00;;;15.52;;
19675;SDS011;39539;52.202;9.876;2024-03-06T04:56:49;19.45;;;14.80;;
19675;SDS011;39539;52.202;9.876;2024-03-06T04:59:14;17.15;;;14.90;;
19675;SDS011;39539;52.202;9.876;2024-03-06T05:01:40;17.55;;;14.50;;
19675;SDS011;39539;52.202;9.876;2024-03-06T05:04:05;18.55;;;14.13;;
19675;SDS011;39539;52.202;9.876;2024-03-06T05:06:32;16.17;;;14.40;;
19675;SDS011;39539;52.202;9.876;2024-03-06T05:08:57;17.25;;;15.15;;
19675;SDS011;39539;52.202;9.876;2024-03-06T05:11:22;17.23;;;14.93;;
19675;SDS011;39539;52.202;9.876;2024-03-06T05:13:48;17.33;;;15.05;;
19675;SDS011;39539;52.202;9.876;2024-03-06T05:16:14;21.50;;;16.30;;
19675;SDS011;39539;52.202;9.876;2024-03-06T05:18:39;18.65;;;14.10;;
19675;SDS011;39539;52.202;9.876;2024-03-06T05:21:05;17.73;;;14.95;;
19675;SDS011;39539;52.202;9.876;2024-03-06T05:23:30;18.13;;;14.50;;
19675;SDS011;39539;52.202;9.876;2024-03-06T05:25:55;17.80;;;13.98;;
19675;SDS011;39539;52.202;9.876;2024-03-06T05:28:21;16.48;;;14.43;;
19675;SDS011;39539;52.202;9.876;2024-03-06T05:30:46;19.75;;;13.32;;
19675;SDS011;39539;52.202;9.876;2024-03-06T05:33:12;19.35;;;15.15;;
19675;SDS011;39539;52.202;9.876;2024-03-06T05:35:38;22.10;;;15.75;;
19675;SDS011;39539;52.202;9.876;2024-03-06T05:38:03;18.83;;;15.18;;
19675;SDS011;39539;52.202;9.876;2024-03-06T05:40:28;16.33;;;14.52;;
19675;SDS011;39539;52.202;9.876;2024-03-06T05:42:55;15.65;;;13.95;;
19675;SDS011;39539;52.202;9.876;2024-03-06T05:45:20;15.23;;;13.43;;
19675;SDS011;39539;52.202;9.876;2024-03-06T05:47:46;16.95;;;13.60;;
19675;SDS011;39539;52.202;9.876;2024-03-06T05:50:12;18.50;;;16.00;;
19675;SDS011;39539;52.202;9.876;2024-03-06T05:52:38;26.23;;;16.73;;
19675;SDS011;39539;52.202;9.876;2024-03-06T05:55:03;19.38;;;15.07;;
19675;SDS011;39539;52.202;9.876;2024-03-06T05:57:31;15.52;;;13.93;;
19675;SDS011;39539;52.202;9.876;2024-03-06T05:59:57;19.35;;;15.07;;
19675;SDS011;39539;52.202;9.876;2024-03-06T06:02:22;19.13;;;15.00;;
19675;SDS011;39539;52.202;9.876;2024-03-06T06:04:47;17.25;;;13.57;;
19675;SDS011;39539;52.202;9.876;2024-03-06T06:07:13;19.35;;;14.77;;
19675;SDS011;39539;52.202;9.876;2024-03-06T06:09:38;17.08;;;14.80;;
19675;SDS011;39539;52.202;9.876;2024-03-06T06:12:04;20.08;;;16.20;;
19675;SDS011;39539;52.202;9.876;2024-03-06T06:14:29;16.42;;;14.32;;
19675;SDS011;39539;52.202;9.876;2024-03-06T06:16:56;20.55;;;14.60;;
19675;SDS011;39539;52.202;9.876;2024-03-06T06:19:21;18.42;;;13.95;;
19675;SDS011;39539;52.202;9.876;2024-03-06T06:21:47;20.13;;;16.02;;
19675;SDS011;39539;52.202;9.876;2024-03-06T06:24:12;17.50;;;14.15;;
19675;SDS011;39539;52.202;9.876;2024-03-06T06:26:40;17.83;;;14.57;;
19675;SDS011;39539;52.202;9.876;2024-03-06T06:29:05;17.42;;;15.32;;
19675;SDS011;39539;52.202;9.876;2024-03-06T06:31:31;16.83;;;14.23;;
19675;SDS011;39539;52.202;9.876;2024-03-06T06:33:56;15.73;;;13.75;;
19675;SDS011;39539;52.202;9.876;2024-03-06T06:36:22;18.80;;;15.82;;
19675;SDS011;39539;52.202;9.876;2024-03-06T06:38:48;16.23;;;14.45;;
19675;SDS011;39539;52.202;9.876;2024-03-06T06:41:13;20.25;;;15.00;;
19675;SDS011;39539;52.202;9.876;2024-03-06T06:43:39;24.02;;;15.70;;
19675;SDS011;39539;52.202;9.876;2024-03-06T06:46:08;18.15;;;15.38;;
19675;SDS011;39539;52.202;9.876;2024-03-06T06:48:33;18.25;;;14.20;;
19675;SDS011;39539;52.202;9.876;2024-03-06T06:50:59;20.35;;;14.90;;
19675;SDS011;39539;52.202;9.876;2024-03-06T06:53:28;19.65;;;14.68;;
19675;SDS011;39539;52.202;9.876;2024-03-06T06:55:57;20.95;;;16.77;;
19675;SDS011;39539;52.202;9.876;2024-03-06T06:58:23;19.08;;;15.43;;
19675;SDS011;39539;52.202;9.876;2024-03-06T07:00:48;19.48;;;16.05;;
19675;SDS011;39539;52.202;9.876;2024-03-06T07:03:14;19.48;;;16.10;;
19675;SDS011;39539;52.202;9.876;2024-03-06T07:05:39;19.70;;;15.23;;
19675;SDS011;39539;52.202;9.876;2024-03-06T07:08:07;19.33;;;14.77;;
19675;SDS011;39539;52.202;9.876;2024-03-06T07:10:33;20.90;;;15.10;;
19675;SDS011;39539;52.202;9.876;2024-03-06T07:13:01;18.73;;;14.98;;
19675;SDS011;39539;52.202;9.876;2024-03-06T07:15:28;21.80;;;14.68;;
19675;SDS011;39539;52.202;9.876;2024-03-06T07:17:53;19.90;;;15.52;;
19675;SDS011;39539;52.202;9.876;2024-03-06T07:20:19;21.48;;;15.57;;
19675;SDS011;39539;52.202;9.876;2024-03-06T07:22:44;16.65;;;14.45;;
19675;SDS011;39539;52.202;9.876;2024-03-06T07:25:10;19.52;;;14.82;;
19675;SDS011;39539;52.202;9.876;2024-03-06T07:27:35;20.92;;;15.30;;
19675;SDS011;39539;52.202;9.876;2024-03-06T07:30:01;18.38;;;15.15;;
19675;SDS011;39539;52.202;9.876;2024-03-06T07:32:28;18.40;;;14.55;;
19675;SDS011;39539;52.202;9.876;2024-03-06T07:34:53;18.77;;;15.90;;
19675;SDS011;39539;52.202;9.876;2024-03-06T07:37:18;18.70;;;15.45;;
19675;SDS011;39539;52.202;9.876;2024-03-06T07:39:44;19.15;;;15.38;;
19675;SDS011;39539;52.202;9.876;2024-03-06T07:42:10;21.80;;;16.23;;
19675;SDS011;39539;52.202;9.876;2024-03-06T07:44:37;19.60;;;16.02;;
19675;SDS011;39539;52.202;9.876;2024-03-06T07:47:03;22.23;;;17.05;;
19675;SDS011;39539;52.202;9.876;2024-03-06T07:49:30;19.42;;;15.32;;
19675;SDS011;39539;52.202;9.876;2024-03-06T07:51:56;18.15;;;15.55;;
19675;SDS011;39539;52.202;9.876;2024-03-06T07:54:23;18.05;;;15.43;;
19675;SDS011;39539;52.202;9.876;2024-03-06T07:56:50;21.05;;;16.70;;
19675;SDS011;39539;52.202;9.876;2024-03-06T07:59:16;21.65;;;15.93;;
19675;SDS011;39539;52.202;9.876;2024-03-06T08:01:44;18.90;;;15.52;;
19675;SDS011;39539;52.202;9.876;2024-03-06T08:04:09;17.83;;;15.93;;
19675;SDS011;39539;52.202;9.876;2024-03-06T08:06:35;19.70;;;15.68;;
19675;SDS011;39539;52.202;9.876;2024-03-06T08:09:04;23.80;;;16.08;;
19675;SDS011;39539;52.202;9.876;2024-03-06T08:11:30;21.85;;;15.40;;
19675;SDS011;39539;52.202;9.876;2024-03-06T08:14:00;19.58;;;15.70;;
19675;SDS011;39539;52.202;9.876;2024-03-06T08:16:27;20.55;;;16.15;;
19675;SDS011;39539;52.202;9.876;2024-03-06T08:18:54;20.52;;;16.30;;
19675;SDS011;39539;52.202;9.876;2024-03-06T08:21:20;20.15;;;16.50;;
19675;SDS011;39539;52.202;9.876;2024-03-06T08:23:46;19.15;;;15.70;;
19675;SDS011;39539;52.202;9.876;2024-03-06T08:26:12;20.48;;;16.20;;
19675;SDS011;39539;52.202;9.876;2024-03-06T08:28:38;19.42;;;17.02;;
19675;SDS011;39539;52.202;9.876;2024-03-06T08:31:03;19.58;;;17.52;;
19675;SDS011;39539;52.202;9.876;2024-03-06T08:33:29;19.42;;;15.80;;
19675;SDS011;39539;52.202;9.876;2024-03-06T08:35:54;21.58;;;15.95;;
19675;SDS011;39539;52.202;9.876;2024-03-06T08:38:21;20.63;;;17.00;;
19675;SDS011;39539;52.202;9.876;2024-03-06T08:40:46;21.02;;;15.90;;
19675;SDS011;39539;52.202;9.876;2024-03-06T08:43:12;25.90;;;17.92;;
19675;SDS011;39539;52.202;9.876;2024-03-06T08:45:38;24.48;;;17.23;;
19675;SDS011;39539;52.202;9.876;2024-03-06T08:48:05;20.48;;;16.80;;
19675;SDS011;39539;52.202;9.876;2024-03-06T08:50:30;23.75;;;16.67;;
19675;SDS011;39539;52.202;9.876;2024-03-06T08:52:56;18.08;;;16.15;;
19675;SDS011;39539;52.202;9.876;2024-03-06T08:55:21;25.70;;;17.70;;
19675;SDS011;39539;52.202;9.876;2024-03-06T08:57:47;18.50;;;14.82;;
19675;SDS011;39539;52.202;9.876;2024-03-06T09:00:14;22.15;;;17.38;;
19675;SDS011;39539;52.202;9.876;2024-03-06T09:02:39;26.85;;;16.67;;
19675;SDS011;39539;52.202;9.876;2024-03-06T09:05:08;22.50;;;17.50;;
19675;SDS011;39539;52.202;9.876;2024-03-06T09:07:35;21.92;;;17.98;;
19675;SDS011;39539;52.202;9.876;2024-03-06T09:10:12;24.88;;;17.88;;
19675;SDS011;39539;52.202;9.876;2024-03-06T09:12:38;22.27;;;17.92;;
19675;SDS011;39539;52.202;9.876;2024-03-06T09:15:04;24.02;;;16.90;;
19675;SDS011;39539;52.202;9.876;2024-03-06T09:17:32;19.77;;;17.67;;
19675;SDS011;39539;52.202;9.876;2024-03-06T09:19:58;22.48;;;18.42;;
19675;SDS011;39539;52.202;9.876;2024-03-06T09:22:23;25.02;;;17.52;;
19675;SDS011;39539;52.202;9.876;2024-03-06T09:24:50;22.17;;;18.42;;
19675;SDS011;39539;52.202;9.876;2024-03-06T09:27:16;23.73;;;18.33;;
19675;SDS011;39539;52.202;9.876;2024-03-06T09:29:42;20.85;;;18.02;;
19675;SDS011;39539;52.202;9.876;2024-03-06T09:32:08;24.08;;;18.17;;
19675;SDS011;39539;52.202;9.876;2024-03-06T09:34:33;29.88;;;17.02;;
19675;SDS011;39539;52.202;9.876;2024-03-06T09:36:59;23.42;;;18.33;;
19675;SDS011;39539;52.202;9.876;2024-03-06T09:39:24;24.42;;;18.70;;
19675;SDS011;39539;52.202;9.876;2024-03-06T09:41:50;27.27;;;19.52;;
19675;SDS011;39539;52.202;9.876;2024-03-06T09:44:16;24.50;;;18.27;;
19675;SDS011;39539;52.202;9.876;2024-03-06T09:46:46;22.80;;;17.92;;
19675;SDS011;39539;52.202;9.876;2024-03-06T09:49:16;24.73;;;18.08;;
19675;SDS011;39539;52.202;9.876;2024-03-06T09:51:44;25.13;;;16.92;;
19675;SDS011;39539;52.202;9.876;2024-03-06T09:54:14;22.25;;;18.40;;
19675;SDS011;39539;52.202;9.876;2024-03-06T09:56:43;24.77;;;18.70;;
19675;SDS011;39539;52.202;9.876;2024-03-06T09:59:09;24.90;;;18.17;;
19675;SDS011;39539;52.202;9.876;2024-03-06T10:01:45;22.80;;;18.17;;
19675;SDS011;39539;52.202;9.876;2024-03-06T10:04:32;21.27;;;18.85;;
19675;SDS011;39539;52.202;9.876;2024-03-06T10:07:02;23.63;;;18.75;;
19675;SDS011;39539;52.202;9.876;2024-03-06T10:09:27;26.88;;;18.60;;
19675;SDS011;39539;52.202;9.876;2024-03-06T10:11:55;21.70;;;17.42;;
19675;SDS011;39539;52.202;9.876;2024-03-06T10:14:22;23.52;;;17.70;;
19675;SDS011;39539;52.202;9.876;2024-03-06T10:16:58;25.13;;;20.08;;
19675;SDS011;39539;52.202;9.876;2024-03-06T10:19:27;25.85;;;15.35;;
19675;SDS011;39539;52.202;9.876;2024-03-06T10:21:53;25.20;;;22.98;;
19675;SDS011;39539;52.202;9.876;2024-03-06T10:24:29;24.38;;;22.48;;
19675;SDS011;39539;52.202;9.876;2024-03-06T10:26:55;24.08;;;22.20;;
19675;SDS011;39539;52.202;9.876;2024-03-06T10:29:24;24.83;;;22.83;;
19675;SDS011;39539;52.202;9.876;2024-03-06T10:31:51;24.13;;;21.88;;
19675;SDS011;39539;52.202;9.876;2024-03-06T10:34:17;22.23;;;17.67;;
19675;SDS011;39539;52.202;9.876;2024-03-06T10:36:43;23.67;;;17.30;;
19675;SDS011;39539;52.202;9.876;2024-03-06T10:39:11;21.92;;;17.50;;
19675;SDS011;39539;52.202;9.876;2024-03-06T10:41:42;20.42;;;16.83;;
19675;SDS011;39539;52.202;9.876;2024-03-06T10:44:12;22.67;;;16.27;;
19675;SDS011;39539;52.202;9.876;2024-03-06T10:46:44;23.08;;;15.18;;
19675;SDS011;39539;52.202;9.876;2024-03-06T10:49:14;23.33;;;16.75;;
19675;SDS011;39539;52.202;9.876;2024-03-06T10:51:41;21.73;;;15.85;;
19675;SDS011;39539;52.202;9.876;2024-03-06T10:54:08;19.48;;;16.45;;
19675;SDS011;39539;52.202;9.876;2024-03-06T10:56:38;25.00;;;17.05;;
19675;SDS011;39539;52.202;9.876;2024-03-06T10:59:09;22.90;;;17.15;;
19675;SDS011;39539;52.202;9.876;2024-03-06T11:01:38;41.42;;;18.83;;
19675;SDS011;39539;52.202;9.876;2024-03-06T11:04:05;20.58;;;16.85;;
19675;SDS011;39539;52.202;9.876;2024-03-06T11:06:31;21.60;;;17.70;;
19675;SDS011;39539;52.202;9.876;2024-03-06T11:08:58;24.20;;;22.30;;
19675;SDS011;39539;52.202;9.876;2024-03-06T11:11:24;25.00;;;22.65;;
19675;SDS011;39539;52.202;9.876;2024-03-06T11:13:50;23.50;;;21.38;;
19675;SDS011;39539;52.202;9.876;2024-03-06T11:16:26;24.05;;;21.95;;
19675;SDS011;39539;52.202;9.876;2024-03-06T11:18:52;22.92;;;20.95;;
19675;SDS011;39539;52.202;9.876;2024-03-06T11:21:31;21.60;;;19.70;;
19675;SDS011;39539;52.202;9.876;2024-03-06T11:24:13;51.40;;;22.65;;
19675;SDS011;39539;52.202;9.876;2024-03-06T11:26:42;21.38;;;19.40;;
19675;SDS011;39539;52.202;9.876;2024-03-06T11:29:08;21.40;;;19.55;;
19675;SDS011;39539;52.202;9.876;2024-03-06T11:31:34;19.00;;;15.73;;
19675;SDS011;39539;52.202;9.876;2024-03-06T11:34:01;17.65;;;15.60;;
19675;SDS011;39539;52.202;9.876;2024-03-06T11:36:29;16.70;;;14.90;;
19675;SDS011;39539;52.202;9.876;2024-03-06T11:39:04;24.02;;;15.93;;
19675;SDS011;39539;52.202;9.876;2024-03-06T11:44:00;21.48;;;19.67;;
19675;SDS011;39539;52.202;9.876;2024-03-06T11:46:45;22.27;;;20.23;;
19675;SDS011;39539;52.202;9.876;2024-03-06T11:49:18;20.00;;;17.15;;
19675;SDS011;39539;52.202;9.876;2024-03-06T11:51:49;16.58;;;14.75;;
19675;SDS011;39539;52.202;9.876;2024-03-06T11:54:16;21.48;;;16.35;;
19675;SDS011;39539;52.202;9.876;2024-03-06T11:56:48;23.02;;;21.23;;
19675;SDS011;39539;52.202;9.876;2024-03-06T11:59:31;22.33;;;20.23;;
19675;SDS011;39539;52.202;9.876;2024-03-06T12:01:58;21.40;;;19.52;;
19675;SDS011;39539;52.202;9.876;2024-03-06T12:04:33;20.38;;;18.77;;
19675;SDS011;39539;52.202;9.876;2024-03-06T12:07:02;23.25;;;20.55;;
19675;SDS011;39539;52.202;9.876;2024-03-06T12:09:30;20.33;;;16.20;;
19675;SDS011;39539;52.202;9.876;2024-03-06T12:11:57;20.75;;;14.82;;
19675;SDS011;39539;52.202;9.876;2024-03-06T12:14:23;19.83;;;16.48;;
19675;SDS011;39539;52.202;9.876;2024-03-06T12:16:58;22.13;;;18.92;;
19675;SDS011;39539;52.202;9.876;2024-03-06T12:19:28;21.98;;;19.95;;
19675;SDS011;39539;52.202;9.876;2024-03-06T12:21:59;20.90;;;19.40;;
19675;SDS011;39539;52.202;9.876;2024-03-06T12:24:24;22.00;;;20.10;;
19675;SDS011;39539;52.202;9.876;2024-03-06T12:26:58;21.40;;;19.70;;
19675;SDS011;39539;52.202;9.876;2024-03-06T12:29:27;22.23;;;20.42;;
19675;SDS011;39539;52.202;9.876;2024-03-06T12:31:53;22.23;;;20.33;;
19675;SDS011;39539;52.202;9.876;2024-03-06T12:34:19;22.05;;;20.17;;
19675;SDS011;39539;52.202;9.876;2024-03-06T12:36:44;22.25;;;20.15;;
19675;SDS011;39539;52.202;9.876;2024-03-06T12:39:14;21.10;;;19.27;;
19675;SDS011;39539;52.202;9.876;2024-03-06T12:41:43;21.95;;;20.20;;
19675;SDS011;39539;52.202;9.876;2024-03-06T12:44:08;23.67;;;21.43;;
19675;SDS011;39539;52.202;9.876;2024-03-06T12:46:35;21.48;;;19.67;;
19675;SDS011;39539;52.202;9.876;2024-03-06T12:49:00;21.90;;;19.98;;
19675;SDS011;39539;52.202;9.876;2024-03-06T12:51:26;22.00;;;20.10;;
19675;SDS011;39539;52.202;9.876;2024-03-06T12:53:52;21.52;;;19.77;;
19675;SDS011;39539;52.202;9.876;2024-03-06T12:56:18;21.85;;;19.90;;
19675;SDS011;39539;52.202;9.876;2024-03-06T12:58:44;22.73;;;20.77;;
19675;SDS011;39539;52.202;9.876;2024-03-06T13:01:09;20.77;;;19.17;;
19675;SDS011;39539;52.202;9.876;2024-03-06T13:03:38;21.63;;;19.65;;
19675;SDS011;39539;52.202;9.876;2024-03-06T13:06:04;21.83;;;20.02;;
19675;SDS011;39539;52.202;9.876;2024-03-06T13:08:31;21.98;;;20.08;;
19675;SDS011;39539;52.202;9.876;2024-03-06T13:10:57;22.52;;;20.58;;
19675;SDS011;39539;52.202;9.876;2024-03-06T13:13:22;22.02;;;20.10;;
19675;SDS011;39539;52.202;9.876;2024-03-06T13:15:53;21.33;;;19.73;;
19675;SDS011;39539;52.202;9.876;2024-03-06T13:18:19;21.02;;;19.45;;
19675;SDS011;39539;52.202;9.876;2024-03-06T13:20:45;21.23;;;19.23;;
19675;SDS011;39539;52.202;9.876;2024-03-06T13:23:11;22.40;;;20.55;;
19675;SDS011;39539;52.202;9.876;2024-03-06T13:25:40;29.67;;;21.17;;
19675;SDS011;39539;52.202;9.876;2024-03-06T13:28:05;21.60;;;19.55;;
19675;SDS011;39539;52.202;9.876;2024-03-06T13:30:31;22.27;;;20.30;;
19675;SDS011;39539;52.202;9.876;2024-03-06T13:32:57;22.73;;;20.35;;
19675;SDS011;39539;52.202;9.876;2024-03-06T13:35:23;21.95;;;20.25;;
19675;SDS011;39539;52.202;9.876;2024-03-06T13:37:49;21.08;;;19.27;;
19675;SDS011;39539;52.202;9.876;2024-03-06T13:40:14;23.83;;;21.25;;
19675;SDS011;39539;52.202;9.876;2024-03-06T13:42:41;23.33;;;21.38;;
19675;SDS011;39539;52.202;9.876;2024-03-06T13:45:11;23.10;;;20.80;;
19675;SDS011;39539;52.202;9.876;2024-03-06T13:47:40;23.40;;;21.45;;
19675;SDS011;39539;52.202;9.876;2024-03-06T13:50:09;22.90;;;20.88;;
19675;SDS011;39539;52.202;9.876;2024-03-06T13:52:38;24.52;;;22.30;;
19675;SDS011;39539;52.202;9.876;2024-03-06T13:55:05;23.65;;;21.48;;
19675;SDS011;39539;52.202;9.876;2024-03-06T13:57:35;24.70;;;22.65;;
19675;SDS011;39539;52.202;9.876;2024-03-06T14:00:07;23.80;;;22.00;;
19675;SDS011;39539;52.202;9.876;2024-03-06T14:02:40;24.23;;;22.25;;
19675;SDS011;39539;52.202;9.876;2024-03-06T14:05:06;20.20;;;17.80;;
19675;SDS011;39539;52.202;9.876;2024-03-06T14:07:33;27.48;;;18.55;;
19675;SDS011;39539;52.202;9.876;2024-03-06T14:10:00;24.55;;;22.05;;
19675;SDS011;39539;52.202;9.876;2024-03-06T14:12:25;24.38;;;22.40;;
19675;SDS011;39539;52.202;9.876;2024-03-06T14:14:50;25.25;;;22.90;;
19675;SDS011;39539;52.202;9.876;2024-03-06T14:17:16;24.75;;;22.85;;
19675;SDS011;39539;52.202;9.876;2024-03-06T14:19:41;26.27;;;23.77;;
19675;SDS011;39539;52.202;9.876;2024-03-06T14:22:07;24.40;;;22.25;;